Portada
METAR-TAF:

METAR-TAF

Aeropuertos :

Base Aérea de Morón

Morón de la Frontera, España

latitud: 37-09N, longitud: 005-37W, altitud: 87 m

Observación

El informe se hizo hace 26 minutos, a las 13:30 UTC
Viento 8 kt del oeste-suroeste, variando entre sur-suroeste y oeste-noroeste
Temperatura 33°C
Humedad 24%
Presión 1014 hPa
Visibilidad 10 km o más
sin nubes por debajo de 1500 m y sin presencia de cumulonimbus.

METAR: LEMO 141330Z 24008KT 200V300 CAVOK 33/10 Q1014 NOSIG

Hora: 15:56 (13:56 UTC)

Pronóstico

El informe se hizo hace 1 hora y 48 minutos, a las 12:08 UTC
Pronóstico válido del 14 a las 12 UTC al 15 a las 09 UTC
Viento 8 kt del oeste-suroeste
Visibilidad 10 km o más
sin nubes por debajo de 1500 m y sin presencia de cumulonimbus.

TAF: LEMO 141208Z 1412/1509 25008KT CAVOK TX34/1415Z TN17/1505Z

Observaciones y pronósticos meteorológicos de más de 4000 aeropuertos (mensajes METAR y TAF).

Los puntos amarillos y rojos representan las estaciones disponibles.

Ponga el ratón en el punto deseado para ver el nombre de la estación.

Haga clic para ver las observaciones y los pronósticos meteorológicos.

Para cambiar el mapa : haga clic en los botones verdes con una cruz de color negro para hacer un zoom, en el botón verde con un guión para alejar o en las flechas verdes para mapas adyacentes.


METAR-TAF: